Time,TemperatureF,DewpointF,PressureIn,WindDirection,WindDirectionDegrees,WindSpeedMPH,WindSpeedGustMPH,Humidity,HourlyPrecipIn,Conditions,Clouds,dailyrainin,SoftwareType,DateUTC
2013-01-16 00:01:00,65.5,64.0,30.04,East,101,0.0,-999.0,93,-99.99,,,0.00,weatherlink.com 1.10,2013-01-16 05:01:00,
2013-01-16 00:16:00,65.3,63.0,30.04,East,101,0.0,-999.0,93,-99.99,,,0.00,weatherlink.com 1.10,2013-01-16 05:16:00,
2013-01-16 00:31:00,65.1,63.0,30.04,East,101,0.0,-999.0,94,-99.99,,,0.00,weatherlink.com 1.10,2013-01-16 05:31:00,
2013-01-16 00:46:00,64.9,63.0,30.04,East,100,0.0,-999.0,94,-99.99,,,0.00,weatherlink.com 1.10,2013-01-16 05:46:00,
2013-01-16 01:01:00,64.8,63.0,30.03,East,100,0.0,-999.0,94,-99.99,,,0.00,weatherlink.com 1.10,2013-01-16 06:01:00,
2013-01-16 01:16:00,64.4,63.0,30.03,East,100,0.0,-999.0,94,-99.99,,,0.00,weatherlink.com 1.10,2013-01-16 06:16:00,
2013-01-16 01:31:00,64.3,63.0,30.04,East,100,0.0,-999.0,95,-99.99,,,0.00,weatherlink.com 1.10,2013-01-16 06:31:00,
2013-01-16 01:46:00,64.1,63.0,30.04,East,100,0.0,-999.0,95,-99.99,,,0.00,weatherlink.com 1.10,2013-01-16 06:46:00,
2013-01-16 02:01:00,64.0,63.0,30.04,East,99,0.0,-999.0,95,-99.99,,,0.00,weatherlink.com 1.10,2013-01-16 07:01:00,
2013-01-16 02:16:00,63.8,62.0,30.04,East,100,0.0,-999.0,95,-99.99,,,0.00,weatherlink.com 1.10,2013-01-16 07:16:00,
2013-01-16 02:31:00,63.7,62.0,30.04,East,100,0.0,-999.0,95,-99.99,,,0.00,weatherlink.com 1.10,2013-01-16 07:31:00,
2013-01-16 02:46:00,63.5,62.0,30.04,East,100,0.0,-999.0,96,-99.99,,,0.00,weatherlink.com 1.10,2013-01-16 07:46:00,
2013-01-16 03:01:00,63.0,62.0,30.04,East,100,0.0,-999.0,95,-99.99,,,0.00,weatherlink.com 1.10,2013-01-16 08:01:00,
2013-01-16 03:16:00,62.9,62.0,30.04,East,100,0.0,-999.0,96,-99.99,,,0.00,weatherlink.com 1.10,2013-01-16 08:16:00,
2013-01-16 03:31:00,63.0,62.0,30.04,East,100,0.0,-999.0,96,-99.99,,,0.00,weatherlink.com 1.10,2013-01-16 08:31:00,
2013-01-16 03:46:00,63.2,62.0,30.04,East,99,0.0,-999.0,96,-99.99,,,0.00,weatherlink.com 1.10,2013-01-16 08:46:00,
2013-01-16 04:01:00,63.4,62.0,30.04,East,96,0.0,-999.0,96,-99.99,,,0.00,weatherlink.com 1.10,2013-01-16 09:01:00,
2013-01-16 04:16:00,63.8,63.0,30.03,East,96,0.0,-999.0,96,-99.99,,,0.00,weatherlink.com 1.10,2013-01-16 09:16:00,
2013-01-16 04:31:00,64.1,63.0,30.03,East,97,0.0,-999.0,96,-99.99,,,0.00,weatherlink.com 1.10,2013-01-16 09:31:00,
2013-01-16 04:46:00,64.5,63.0,30.03,East,96,0.0,-999.0,96,-99.99,,,0.00,weatherlink.com 1.10,2013-01-16 09:46:00,
2013-01-16 05:01:00,64.7,64.0,30.03,East,96,0.0,-999.0,96,-99.99,,,0.00,weatherlink.com 1.10,2013-01-16 10:01:00,
2013-01-16 05:16:00,65.1,64.0,30.03,East,96,0.0,-999.0,96,-99.99,,,0.00,weatherlink.com 1.10,2013-01-16 10:16:00,
2013-01-16 05:31:00,65.6,65.0,30.04,SSE,154,0.0,-999.0,96,-99.99,,,0.00,weatherlink.com 1.10,2013-01-16 10:31:00,
2013-01-16 05:46:00,66.0,65.0,30.04,SSE,153,0.0,-999.0,96,-99.99,,,0.00,weatherlink.com 1.10,2013-01-16 10:46:00,
2013-01-16 06:01:00,66.2,65.0,30.05,West,265,0.0,-999.0,96,-99.99,,,0.00,weatherlink.com 1.10,2013-01-16 11:01:00,
2013-01-16 06:16:00,66.4,65.0,30.05,West,265,0.0,-999.0,95,-99.99,,,0.00,weatherlink.com 1.10,2013-01-16 11:16:00,
2013-01-16 06:31:00,66.7,65.0,30.05,West,265,0.0,-999.0,95,-99.99,,,0.00,weatherlink.com 1.10,2013-01-16 11:31:00,
2013-01-16 06:46:00,66.8,65.0,30.05,West,265,0.0,-999.0,95,-99.99,,,0.00,weatherlink.com 1.10,2013-01-16 11:46:00,
2013-01-16 07:01:00,66.6,65.0,30.06,West,265,0.0,-999.0,94,-99.99,,,0.00,weatherlink.com 1.10,2013-01-16 12:01:00,
2013-01-16 07:16:00,66.3,65.0,30.06,West,265,0.0,-999.0,94,-99.99,,,0.00,weatherlink.com 1.10,2013-01-16 12:16:00,
2013-01-16 07:31:00,65.9,65.0,30.06,West,261,0.0,-999.0,95,-99.99,,,0.00,weatherlink.com 1.10,2013-01-16 12:31:00,
2013-01-16 07:46:00,65.6,64.0,30.06,West,261,0.0,-999.0,95,-99.99,,,0.00,weatherlink.com 1.10,2013-01-16 12:46:00,
2013-01-16 08:01:00,66.7,65.0,30.07,West,261,0.0,-999.0,95,-99.99,,,0.00,weatherlink.com 1.10,2013-01-16 13:01:00,
2013-01-16 08:16:00,67.4,66.0,30.07,West,261,0.0,-999.0,94,-99.99,,,0.00,weatherlink.com 1.10,2013-01-16 13:16:00,
2013-01-16 08:31:00,68.8,67.0,30.07,West,261,0.0,-999.0,93,-99.99,,,0.00,weatherlink.com 1.10,2013-01-16 13:31:00,
2013-01-16 08:47:00,71.0,68.0,30.07,West,261,0.0,-999.0,90,-99.99,,,0.00,weatherlink.com 1.10,2013-01-16 13:47:00,
2013-01-16 09:02:00,74.0,69.0,30.08,SSE,150,0.0,-999.0,83,-99.99,,,0.00,weatherlink.com 1.10,2013-01-16 14:02:00,
2013-01-16 09:17:00,76.1,69.0,30.09,SE,138,0.0,-999.0,78,-99.99,,,0.00,weatherlink.com 1.10,2013-01-16 14:17:00,
2013-01-16 09:32:00,77.3,68.0,30.09,South,175,0.0,-999.0,73,-99.99,,,0.00,weatherlink.com 1.10,2013-01-16 14:32:00,
2013-01-16 09:47:00,77.7,68.0,30.09,ENE,75,0.0,-999.0,73,-99.99,,,0.00,weatherlink.com 1.10,2013-01-16 14:47:00,
2013-01-16 10:02:00,78.4,68.0,30.09,East,84,0.0,-999.0,71,-99.99,,,0.00,weatherlink.com 1.10,2013-01-16 15:02:00,
2013-01-16 10:17:00,78.7,69.0,30.09,South,188,0.0,-999.0,72,-99.99,,,0.00,weatherlink.com 1.10,2013-01-16 15:17:00,
2013-01-16 10:32:00,79.1,68.0,30.09,SE,141,0.0,-999.0,69,-99.99,,,0.00,weatherlink.com 1.10,2013-01-16 15:32:00,
2013-01-16 10:47:00,79.2,67.0,30.08,SSW,194,0.0,-999.0,67,-99.99,,,0.00,weatherlink.com 1.10,2013-01-16 15:47:00,
2013-01-16 11:02:00,80.0,68.0,30.08,SSE,148,0.0,-999.0,67,-99.99,,,0.00,weatherlink.com 1.10,2013-01-16 16:02:00,
2013-01-16 11:17:00,80.0,68.0,30.07,SSE,163,0.0,-999.0,67,-99.99,,,0.00,weatherlink.com 1.10,2013-01-16 16:17:00,
2013-01-16 11:32:00,80.9,68.0,30.06,South,175,0.0,-999.0,65,-99.99,,,0.00,weatherlink.com 1.10,2013-01-16 16:32:00,
2013-01-16 11:47:00,80.6,69.0,30.06,SSE,156,0.0,-999.0,67,-99.99,,,0.00,weatherlink.com 1.10,2013-01-16 16:47:00,
2013-01-16 12:02:00,81.5,69.0,30.05,South,171,0.0,-999.0,66,-99.99,,,0.00,weatherlink.com 1.10,2013-01-16 17:02:00,
2013-01-16 12:17:00,81.2,69.0,30.04,SSE,167,0.0,-999.0,66,-99.99,,,0.00,weatherlink.com 1.10,2013-01-16 17:17:00,
2013-01-16 12:32:00,80.4,69.0,30.04,SSW,196,0.0,-999.0,68,-99.99,,,0.00,weatherlink.com 1.10,2013-01-16 17:32:00,
2013-01-16 12:47:00,80.4,69.0,30.03,SSE,157,0.0,-999.0,68,-99.99,,,0.00,weatherlink.com 1.10,2013-01-16 17:47:00,
2013-01-16 13:02:00,80.2,69.0,30.03,South,172,0.0,-999.0,68,-99.99,,,0.00,weatherlink.com 1.10,2013-01-16 18:02:00,
2013-01-16 13:17:00,80.3,69.0,30.02,SE,130,0.0,-999.0,68,-99.99,,,0.00,weatherlink.com 1.10,2013-01-16 18:17:00,
2013-01-16 13:32:00,80.6,69.0,30.01,South,169,0.0,-999.0,68,-99.99,,,0.00,weatherlink.com 1.10,2013-01-16 18:32:00,
2013-01-16 13:47:00,81.2,69.0,30.01,SE,129,0.0,-999.0,67,-99.99,,,0.00,weatherlink.com 1.10,2013-01-16 18:47:00,
2013-01-16 14:02:00,80.6,70.0,30.01,ESE,111,0.0,-999.0,69,-99.99,,,0.00,weatherlink.com 1.10,2013-01-16 19:02:00,
2013-01-16 14:17:00,80.7,70.0,30.00,SE,140,0.0,-999.0,69,-99.99,,,0.00,weatherlink.com 1.10,2013-01-16 19:17:00,
2013-01-16 14:32:00,80.1,70.0,30.00,SSE,153,0.0,-999.0,70,-99.99,,,0.00,weatherlink.com 1.10,2013-01-16 19:32:00,
2013-01-16 14:47:00,80.4,69.0,30.00,East,89,0.0,-999.0,68,-99.99,,,0.00,weatherlink.com 1.10,2013-01-16 19:47:00,
2013-01-16 15:02:00,80.5,69.0,30.00,SE,126,0.0,-999.0,67,-99.99,,,0.00,weatherlink.com 1.10,2013-01-16 20:02:00,
2013-01-16 15:17:00,80.4,69.0,30.01,SSE,167,0.0,-999.0,69,-99.99,,,0.00,weatherlink.com 1.10,2013-01-16 20:17:00,
2013-01-16 15:32:00,80.1,70.0,30.01,ESE,110,0.0,-999.0,70,-99.99,,,0.00,weatherlink.com 1.10,2013-01-16 20:32:00,
2013-01-16 15:47:00,79.7,69.0,30.01,South,182,0.0,-999.0,70,-99.99,,,0.00,weatherlink.com 1.10,2013-01-16 20:47:00,
2013-01-16 16:02:00,79.7,70.0,30.01,SSE,156,0.0,-999.0,71,-99.99,,,0.00,weatherlink.com 1.10,2013-01-16 21:02:00,
2013-01-16 16:17:00,79.7,70.0,30.01,SSE,155,0.0,-999.0,72,-99.99,,,0.00,weatherlink.com 1.10,2013-01-16 21:17:00,
2013-01-16 16:32:00,78.9,70.0,30.02,SE,130,0.0,-999.0,73,-99.99,,,0.00,weatherlink.com 1.10,2013-01-16 21:32:00,
2013-01-16 16:47:00,78.7,70.0,30.02,SSE,148,0.0,-999.0,74,-99.99,,,0.00,weatherlink.com 1.10,2013-01-16 21:47:00,
2013-01-16 17:02:00,77.8,69.0,30.02,ESE,121,0.0,-999.0,75,-99.99,,,0.00,weatherlink.com 1.10,2013-01-16 22:02:00,
2013-01-16 17:17:00,77.2,69.0,30.02,SE,134,0.0,-999.0,76,-99.99,,,0.00,weatherlink.com 1.10,2013-01-16 22:17:00,
2013-01-16 17:32:00,76.6,69.0,30.03,SSE,154,0.0,-999.0,77,-99.99,,,0.00,weatherlink.com 1.10,2013-01-16 22:32:00,
2013-01-16 17:47:00,76.2,69.0,30.03,SSE,163,0.0,-999.0,78,-99.99,,,0.00,weatherlink.com 1.10,2013-01-16 22:47:00,
2013-01-16 18:02:00,75.8,69.0,30.03,SSE,157,0.0,-999.0,79,-99.99,,,0.00,weatherlink.com 1.10,2013-01-16 23:02:00,
2013-01-16 18:17:00,75.4,69.0,30.03,SSE,152,0.0,-999.0,81,-99.99,,,0.00,weatherlink.com 1.10,2013-01-16 23:17:00,
2013-01-16 18:32:00,75.0,69.0,30.03,SE,146,0.0,-999.0,82,-99.99,,,0.00,weatherlink.com 1.10,2013-01-16 23:32:00,
2013-01-16 18:47:00,74.8,69.0,30.04,SSE,155,0.0,-999.0,82,-99.99,,,0.00,weatherlink.com 1.10,2013-01-16 23:47:00,
2013-01-16 19:02:00,74.5,69.0,30.04,SE,142,0.0,-999.0,83,-99.99,,,0.00,weatherlink.com 1.10,2013-01-17 00:02:00,
2013-01-16 19:17:00,74.4,69.0,30.04,SSE,166,0.0,-999.0,83,-99.99,,,0.00,weatherlink.com 1.10,2013-01-17 00:17:00,
2013-01-16 19:32:00,74.2,69.0,30.05,SSE,155,0.0,-999.0,83,-99.99,,,0.00,weatherlink.com 1.10,2013-01-17 00:32:00,
2013-01-16 20:02:00,73.5,69.0,30.05,SE,145,0.0,-999.0,85,-99.99,,,0.00,weatherlink.com 1.10,2013-01-17 01:02:00,
2013-01-16 20:17:00,73.3,69.0,30.05,SSE,153,0.0,-999.0,85,-99.99,,,0.00,weatherlink.com 1.10,2013-01-17 01:17:00,
2013-01-16 20:32:00,73.1,68.0,30.05,SSE,161,0.0,-999.0,85,-99.99,,,0.00,weatherlink.com 1.10,2013-01-17 01:32:00,
2013-01-16 20:47:00,72.8,68.0,30.05,SE,140,0.0,-999.0,86,-99.99,,,0.00,weatherlink.com 1.10,2013-01-17 01:47:00,
2013-01-16 21:02:00,72.5,69.0,30.05,SE,142,0.0,-999.0,87,-99.99,,,0.00,weatherlink.com 1.10,2013-01-17 02:02:00,
2013-01-16 21:17:00,72.2,69.0,30.05,SSE,148,0.0,-999.0,88,-99.99,,,0.00,weatherlink.com 1.10,2013-01-17 02:17:00,
2013-01-16 21:32:00,72.3,69.0,30.05,SSE,154,0.0,-999.0,89,-99.99,,,0.00,weatherlink.com 1.10,2013-01-17 02:32:00,
2013-01-16 21:47:00,72.1,69.0,30.05,SSE,153,0.0,-999.0,89,-99.99,,,0.00,weatherlink.com 1.10,2013-01-17 02:47:00,
2013-01-16 22:02:00,72.1,69.0,30.05,SE,130,0.0,-999.0,90,-99.99,,,0.00,weatherlink.com 1.10,2013-01-17 03:02:00,
2013-01-16 22:17:00,72.1,69.0,30.05,South,173,0.0,-999.0,90,-99.99,,,0.00,weatherlink.com 1.10,2013-01-17 03:17:00,
2013-01-16 22:33:00,71.9,69.0,30.04,South,173,0.0,-999.0,91,-99.99,,,0.00,weatherlink.com 1.10,2013-01-17 03:33:00,
2013-01-16 22:48:00,71.8,69.0,30.03,SE,142,0.0,-999.0,91,-99.99,,,0.00,weatherlink.com 1.10,2013-01-17 03:48:00,
2013-01-16 23:03:00,71.8,69.0,30.03,SE,140,0.0,-999.0,90,-99.99,,,0.00,weatherlink.com 1.10,2013-01-17 04:03:00,
2013-01-16 23:18:00,71.9,69.0,30.03,SSE,152,0.0,-999.0,90,-99.99,,,0.00,weatherlink.com 1.10,2013-01-17 04:18:00,
2013-01-16 23:33:00,72.3,69.0,30.03,South,169,0.0,-999.0,89,-99.99,,,0.00,weatherlink.com 1.10,2013-01-17 04:33:00,
2013-01-16 23:48:00,72.0,68.0,30.03,SSW,200,0.0,-999.0,87,-99.99,,,0.00,weatherlink.com 1.10,2013-01-17 04:48:00,